sensor_id;sensor_type;location;lat;lon;timestamp;pressure;altitude;pressure_sealevel;temperature;humidity
24280;BME280;12395;42.808;23.408;2023-06-01T00:01:52;95055.31;;;12.62;100.00
24280;BME280;12395;42.808;23.408;2023-06-01T00:04:17;95040.50;;;12.48;100.00
24280;BME280;12395;42.808;23.408;2023-06-01T00:06:43;95059.84;;;12.61;100.00
24280;BME280;12395;42.808;23.408;2023-06-01T00:09:09;95024.81;;;12.39;100.00
24280;BME280;12395;42.808;23.408;2023-06-01T00:11:34;95045.63;;;12.43;100.00
24280;BME280;12395;42.808;23.408;2023-06-01T00:14:00;95038.72;;;12.42;100.00
24280;BME280;12395;42.808;23.408;2023-06-01T00:16:26;95042.78;;;12.44;100.00
24280;BME280;12395;42.808;23.408;2023-06-01T00:18:51;95028.38;;;12.27;100.00
24280;BME280;12395;42.808;23.408;2023-06-01T00:21:18;95046.47;;;12.43;100.00
24280;BME280;12395;42.808;23.408;2023-06-01T00:23:44;95022.47;;;12.25;100.00
24280;BME280;12395;42.808;23.408;2023-06-01T00:26:11;95048.13;;;12.37;100.00
24280;BME280;12395;42.808;23.408;2023-06-01T00:28:37;95037.72;;;12.36;100.00
24280;BME280;12395;42.808;23.408;2023-06-01T00:31:02;95034.72;;;12.26;100.00
24280;BME280;12395;42.808;23.408;2023-06-01T00:33:27;95032.25;;;12.31;100.00
24280;BME280;12395;42.808;23.408;2023-06-01T00:35:53;95038.78;;;12.28;100.00
24280;BME280;12395;42.808;23.408;2023-06-01T00:38:18;95059.19;;;12.34;100.00
24280;BME280;12395;42.808;23.408;2023-06-01T00:40:44;95050.19;;;12.35;100.00
24280;BME280;12395;42.808;23.408;2023-06-01T00:43:10;95046.72;;;12.35;100.00
24280;BME280;12395;42.808;23.408;2023-06-01T00:45:36;95025.38;;;12.17;100.00
24280;BME280;12395;42.808;23.408;2023-06-01T00:48:04;95036.78;;;12.24;100.00
24280;BME280;12395;42.808;23.408;2023-06-01T00:50:30;95046.56;;;12.23;100.00
24280;BME280;12395;42.808;23.408;2023-06-01T00:52:57;95043.53;;;12.20;100.00
24280;BME280;12395;42.808;23.408;2023-06-01T00:55:23;95052.28;;;12.27;100.00
24280;BME280;12395;42.808;23.408;2023-06-01T00:57:50;95049.50;;;12.15;100.00
24280;BME280;12395;42.808;23.408;2023-06-01T01:00:16;95053.59;;;12.11;100.00
24280;BME280;12395;42.808;23.408;2023-06-01T01:02:42;95044.84;;;12.04;100.00
24280;BME280;12395;42.808;23.408;2023-06-01T01:05:10;95050.75;;;12.06;100.00
24280;BME280;12395;42.808;23.408;2023-06-01T01:13:20;95054.50;;;11.99;100.00
24280;BME280;12395;42.808;23.408;2023-06-01T01:18:21;95050.31;;;11.78;100.00
24280;BME280;12395;42.808;23.408;2023-06-01T01:20:52;95046.63;;;11.79;100.00
24280;BME280;12395;42.808;23.408;2023-06-01T01:23:41;95059.47;;;11.82;100.00
24280;BME280;12395;42.808;23.408;2023-06-01T01:29:09;95046.41;;;11.74;100.00
24280;BME280;12395;42.808;23.408;2023-06-01T01:31:34;95061.69;;;11.85;100.00
24280;BME280;12395;42.808;23.408;2023-06-01T01:34:02;95060.28;;;11.83;100.00
24280;BME280;12395;42.808;23.408;2023-06-01T01:36:28;95039.28;;;11.75;100.00
24280;BME280;12395;42.808;23.408;2023-06-01T01:38:54;95054.78;;;11.84;100.00
24280;BME280;12395;42.808;23.408;2023-06-01T01:41:20;95067.22;;;11.84;100.00
24280;BME280;12395;42.808;23.408;2023-06-01T01:43:47;95054.41;;;11.68;100.00
24280;BME280;12395;42.808;23.408;2023-06-01T01:46:29;95050.16;;;11.67;100.00
24280;BME280;12395;42.808;23.408;2023-06-01T01:54:04;95047.69;;;11.65;100.00
24280;BME280;12395;42.808;23.408;2023-06-01T01:56:30;95067.28;;;11.71;100.00
24280;BME280;12395;42.808;23.408;2023-06-01T01:58:56;95046.84;;;11.64;100.00
24280;BME280;12395;42.808;23.408;2023-06-01T02:01:23;95044.84;;;11.67;100.00
24280;BME280;12395;42.808;23.408;2023-06-01T02:04:06;95066.44;;;11.77;100.00
24280;BME280;12395;42.808;23.408;2023-06-01T02:06:35;95050.97;;;11.60;100.00
24280;BME280;12395;42.808;23.408;2023-06-01T02:09:02;95062.19;;;11.62;100.00
24280;BME280;12395;42.808;23.408;2023-06-01T02:11:28;95063.00;;;11.56;100.00
24280;BME280;12395;42.808;23.408;2023-06-01T02:13:53;95058.75;;;11.49;100.00
24280;BME280;12395;42.808;23.408;2023-06-01T02:16:18;95066.09;;;11.47;100.00
24280;BME280;12395;42.808;23.408;2023-06-01T02:18:44;95073.44;;;11.51;100.00
24280;BME280;12395;42.808;23.408;2023-06-01T02:21:12;95067.16;;;11.39;100.00
24280;BME280;12395;42.808;23.408;2023-06-01T02:23:37;95064.06;;;11.42;100.00
24280;BME280;12395;42.808;23.408;2023-06-01T02:26:05;95056.72;;;11.44;100.00
24280;BME280;12395;42.808;23.408;2023-06-01T02:28:30;95084.25;;;11.50;100.00
24280;BME280;12395;42.808;23.408;2023-06-01T02:30:56;95070.19;;;11.43;100.00
24280;BME280;12395;42.808;23.408;2023-06-01T02:33:21;95073.84;;;11.48;100.00
24280;BME280;12395;42.808;23.408;2023-06-01T02:35:50;95085.66;;;11.59;100.00
24280;BME280;12395;42.808;23.408;2023-06-01T02:38:15;95063.66;;;11.45;100.00
24280;BME280;12395;42.808;23.408;2023-06-01T02:40:41;95080.16;;;11.54;100.00
24280;BME280;12395;42.808;23.408;2023-06-01T02:43:06;95073.84;;;11.48;100.00
24280;BME280;12395;42.808;23.408;2023-06-01T02:45:32;95073.66;;;11.50;100.00
24280;BME280;12395;42.808;23.408;2023-06-01T02:47:57;95094.41;;;11.59;100.00
24280;BME280;12395;42.808;23.408;2023-06-01T02:50:22;95065.69;;;11.50;100.00
24280;BME280;12395;42.808;23.408;2023-06-01T02:52:48;95079.53;;;11.58;100.00
24280;BME280;12395;42.808;23.408;2023-06-01T02:55:13;95073.78;;;11.61;100.00
24280;BME280;12395;42.808;23.408;2023-06-01T02:57:38;95056.31;;;11.47;100.00
24280;BME280;12395;42.808;23.408;2023-06-01T03:00:04;95065.06;;;11.54;100.00
24280;BME280;12395;42.808;23.408;2023-06-01T03:02:41;95053.88;;;11.46;100.00
24280;BME280;12395;42.808;23.408;2023-06-01T03:05:07;95071.75;;;11.63;100.00
24280;BME280;12395;42.808;23.408;2023-06-01T03:07:32;95085.03;;;11.70;100.00
24280;BME280;12395;42.808;23.408;2023-06-01T03:09:58;95071.16;;;11.61;100.00
24280;BME280;12395;42.808;23.408;2023-06-01T03:12:23;95072.59;;;11.71;100.00
24280;BME280;12395;42.808;23.408;2023-06-01T03:14:49;95058.31;;;11.72;100.00
24280;BME280;12395;42.808;23.408;2023-06-01T03:17:14;95078.84;;;11.83;100.00
24280;BME280;12395;42.808;23.408;2023-06-01T03:19:40;95077.84;;;11.84;100.00
24280;BME280;12395;42.808;23.408;2023-06-01T03:22:05;95076.00;;;11.84;100.00
24280;BME280;12395;42.808;23.408;2023-06-01T03:24:31;95087.41;;;11.91;100.00
24280;BME280;12395;42.808;23.408;2023-06-01T03:26:57;95090.25;;;11.96;100.00
24280;BME280;12395;42.808;23.408;2023-06-01T03:29:23;95064.53;;;11.90;100.00
24280;BME280;12395;42.808;23.408;2023-06-01T03:31:49;95088.75;;;12.07;100.00
24280;BME280;12395;42.808;23.408;2023-06-01T03:34:14;95086.06;;;12.13;100.00
24280;BME280;12395;42.808;23.408;2023-06-01T03:36:40;95075.69;;;12.05;100.00
24280;BME280;12395;42.808;23.408;2023-06-01T03:39:05;95076.50;;;12.12;100.00
24280;BME280;12395;42.808;23.408;2023-06-01T03:41:34;95092.75;;;12.29;100.00
24280;BME280;12395;42.808;23.408;2023-06-01T03:43:59;95100.91;;;12.27;100.00
24280;BME280;12395;42.808;23.408;2023-06-01T03:46:25;95085.81;;;12.21;100.00
24280;BME280;12395;42.808;23.408;2023-06-01T03:48:50;95093.91;;;12.39;100.00
24280;BME280;12395;42.808;23.408;2023-06-01T03:51:17;95093.41;;;12.49;100.00
24280;BME280;12395;42.808;23.408;2023-06-01T03:53:42;95105.03;;;12.61;100.00
24280;BME280;12395;42.808;23.408;2023-06-01T03:56:07;95089.03;;;12.68;100.00
24280;BME280;12395;42.808;23.408;2023-06-01T03:58:33;95108.47;;;12.93;100.00
24280;BME280;12395;42.808;23.408;2023-06-01T04:00:58;95108.81;;;13.28;100.00
24280;BME280;12395;42.808;23.408;2023-06-01T04:03:26;95085.19;;;13.74;100.00
24280;BME280;12395;42.808;23.408;2023-06-01T04:05:52;95099.66;;;14.14;100.00
24280;BME280;12395;42.808;23.408;2023-06-01T04:08:24;95101.06;;;15.40;100.00
24280;BME280;12395;42.808;23.408;2023-06-01T04:10:50;95105.28;;;16.62;100.00
24280;BME280;12395;42.808;23.408;2023-06-01T04:13:15;95116.09;;;17.29;100.00
24280;BME280;12395;42.808;23.408;2023-06-01T04:15:40;95128.31;;;18.29;97.93
24280;BME280;12395;42.808;23.408;2023-06-01T04:18:06;95124.59;;;20.00;88.31
24280;BME280;12395;42.808;23.408;2023-06-01T04:20:32;95119.97;;;21.70;74.94
24280;BME280;12395;42.808;23.408;2023-06-01T04:22:57;95136.84;;;23.10;66.92
24280;BME280;12395;42.808;23.408;2023-06-01T04:25:23;95124.13;;;23.88;61.52
24280;BME280;12395;42.808;23.408;2023-06-01T04:27:49;95143.41;;;24.39;58.98
24280;BME280;12395;42.808;23.408;2023-06-01T04:30:17;95122.75;;;23.57;61.75
24280;BME280;12395;42.808;23.408;2023-06-01T04:32:43;95130.66;;;22.41;65.47
24280;BME280;12395;42.808;23.408;2023-06-01T04:35:14;95136.97;;;21.25;70.50
24280;BME280;12395;42.808;23.408;2023-06-01T04:37:40;95127.25;;;20.37;75.63
24280;BME280;12395;42.808;23.408;2023-06-01T04:40:09;95133.81;;;19.73;79.26
24280;BME280;12395;42.808;23.408;2023-06-01T04:42:36;95132.91;;;19.31;82.83
24280;BME280;12395;42.808;23.408;2023-06-01T04:45:03;95101.06;;;18.59;86.08
24280;BME280;12395;42.808;23.408;2023-06-01T04:47:33;95124.34;;;18.54;88.06
24280;BME280;12395;42.808;23.408;2023-06-01T04:50:05;95125.94;;;18.33;89.24
24280;BME280;12395;42.808;23.408;2023-06-01T04:52:30;95110.41;;;18.13;91.02
24280;BME280;12395;42.808;23.408;2023-06-01T04:54:56;95128.53;;;18.06;90.96
24280;BME280;12395;42.808;23.408;2023-06-01T04:57:22;95118.22;;;17.77;93.07
24280;BME280;12395;42.808;23.408;2023-06-01T04:59:48;95115.47;;;17.55;94.58
24280;BME280;12395;42.808;23.408;2023-06-01T05:02:14;95120.84;;;17.55;95.33
24280;BME280;12395;42.808;23.408;2023-06-01T05:04:39;95121.38;;;17.40;96.67
24280;BME280;12395;42.808;23.408;2023-06-01T05:07:05;95136.53;;;17.35;99.31
24280;BME280;12395;42.808;23.408;2023-06-01T05:09:31;95136.84;;;17.22;100.00
24280;BME280;12395;42.808;23.408;2023-06-01T05:11:56;95117.28;;;17.05;100.00
24280;BME280;12395;42.808;23.408;2023-06-01T05:14:21;95133.97;;;17.23;100.00
24280;BME280;12395;42.808;23.408;2023-06-01T05:16:47;95134.44;;;17.37;100.00
24280;BME280;12395;42.808;23.408;2023-06-01T05:19:14;95141.59;;;17.48;100.00
24280;BME280;12395;42.808;23.408;2023-06-01T05:21:39;95122.69;;;17.54;100.00
24280;BME280;12395;42.808;23.408;2023-06-01T05:24:06;95146.63;;;17.78;100.00
24280;BME280;12395;42.808;23.408;2023-06-01T05:26:32;95131.84;;;17.92;98.77
24280;BME280;12395;42.808;23.408;2023-06-01T05:28:58;95124.84;;;17.91;97.94
24280;BME280;12395;42.808;23.408;2023-06-01T05:31:23;95126.34;;;18.03;97.07
24280;BME280;12395;42.808;23.408;2023-06-01T05:33:49;95125.72;;;18.18;95.86
24280;BME280;12395;42.808;23.408;2023-06-01T05:36:16;95130.34;;;18.22;95.29
24280;BME280;12395;42.808;23.408;2023-06-01T05:38:41;95118.94;;;18.10;95.94
24280;BME280;12395;42.808;23.408;2023-06-01T05:41:07;95127.34;;;17.97;95.79
24280;BME280;12395;42.808;23.408;2023-06-01T05:43:35;95134.47;;;17.70;97.12
24280;BME280;12395;42.808;23.408;2023-06-01T05:46:01;95134.22;;;17.55;99.87
24280;BME280;12395;42.808;23.408;2023-06-01T05:48:27;95122.94;;;17.53;100.00
24280;BME280;12395;42.808;23.408;2023-06-01T05:50:52;95121.50;;;17.62;100.00
24280;BME280;12395;42.808;23.408;2023-06-01T05:53:17;95136.25;;;17.81;100.00
24280;BME280;12395;42.808;23.408;2023-06-01T05:55:43;95133.25;;;17.99;100.00
24280;BME280;12395;42.808;23.408;2023-06-01T05:58:08;95132.44;;;18.15;100.00
24280;BME280;12395;42.808;23.408;2023-06-01T06:00:34;95128.22;;;18.24;98.67
24280;BME280;12395;42.808;23.408;2023-06-01T06:03:02;95123.56;;;18.36;98.82
24280;BME280;12395;42.808;23.408;2023-06-01T06:05:29;95139.31;;;18.50;97.52
24280;BME280;12395;42.808;23.408;2023-06-01T06:07:55;95133.97;;;18.50;98.96
24280;BME280;12395;42.808;23.408;2023-06-01T06:10:20;95139.44;;;18.60;100.00
24280;BME280;12395;42.808;23.408;2023-06-01T06:12:45;95115.97;;;18.50;100.00
24280;BME280;12395;42.808;23.408;2023-06-01T06:15:11;95134.13;;;18.65;99.28
24280;BME280;12395;42.808;23.408;2023-06-01T06:17:36;95128.78;;;18.65;97.92
24280;BME280;12395;42.808;23.408;2023-06-01T06:20:02;95135.56;;;18.51;97.40
24280;BME280;12395;42.808;23.408;2023-06-01T06:22:31;95132.31;;;18.48;98.51
24280;BME280;12395;42.808;23.408;2023-06-01T06:24:57;95141.88;;;18.61;99.26
24280;BME280;12395;42.808;23.408;2023-06-01T06:27:22;95140.78;;;18.84;99.10
24280;BME280;12395;42.808;23.408;2023-06-01T06:29:47;95138.84;;;19.06;99.38
24280;BME280;12395;42.808;23.408;2023-06-01T06:32:13;95139.25;;;19.19;98.31
24280;BME280;12395;42.808;23.408;2023-06-01T06:34:38;95148.03;;;19.37;97.19
24280;BME280;12395;42.808;23.408;2023-06-01T06:37:07;95153.22;;;19.48;95.22
24280;BME280;12395;42.808;23.408;2023-06-01T06:39:33;95152.66;;;19.41;94.49
24280;BME280;12395;42.808;23.408;2023-06-01T06:42:00;95135.34;;;19.32;95.36
24280;BME280;12395;42.808;23.408;2023-06-01T06:44:27;95145.75;;;19.23;96.85
24280;BME280;12395;42.808;23.408;2023-06-01T06:46:53;95146.97;;;19.11;96.13
24280;BME280;12395;42.808;23.408;2023-06-01T06:49:18;95130.41;;;18.92;95.13
24280;BME280;12395;42.808;23.408;2023-06-01T06:51:45;95149.91;;;19.09;96.66
24280;BME280;12395;42.808;23.408;2023-06-01T06:54:11;95141.19;;;19.24;99.53
24280;BME280;12395;42.808;23.408;2023-06-01T06:56:36;95155.66;;;19.23;97.94
24280;BME280;12395;42.808;23.408;2023-06-01T06:59:02;95136.31;;;19.21;96.57
24280;BME280;12395;42.808;23.408;2023-06-01T07:01:27;95123.34;;;19.13;97.82
24280;BME280;12395;42.808;23.408;2023-06-01T07:03:53;95137.94;;;19.22;99.71
24280;BME280;12395;42.808;23.408;2023-06-01T07:06:19;95136.84;;;19.18;98.76
24280;BME280;12395;42.808;23.408;2023-06-01T07:08:45;95138.34;;;19.09;98.04
24280;BME280;12395;42.808;23.408;2023-06-01T07:11:10;95124.72;;;18.89;99.92
24280;BME280;12395;42.808;23.408;2023-06-01T07:13:36;95144.94;;;18.96;100.00
24280;BME280;12395;42.808;23.408;2023-06-01T07:16:04;95138.25;;;18.99;100.00
24280;BME280;12395;42.808;23.408;2023-06-01T07:18:30;95118.16;;;18.80;100.00
24280;BME280;12395;42.808;23.408;2023-06-01T07:20:57;95125.47;;;18.84;100.00
24280;BME280;12395;42.808;23.408;2023-06-01T07:23:22;95111.25;;;18.84;100.00
24280;BME280;12395;42.808;23.408;2023-06-01T07:25:48;95124.56;;;19.00;100.00
24280;BME280;12395;42.808;23.408;2023-06-01T07:28:13;95116.19;;;18.97;100.00
24280;BME280;12395;42.808;23.408;2023-06-01T07:30:40;95124.88;;;19.04;100.00
24280;BME280;12395;42.808;23.408;2023-06-01T07:33:06;95122.31;;;19.19;100.00
24280;BME280;12395;42.808;23.408;2023-06-01T07:35:31;95127.19;;;19.22;100.00
24280;BME280;12395;42.808;23.408;2023-06-01T07:37:58;95111.09;;;19.22;100.00
24280;BME280;12395;42.808;23.408;2023-06-01T07:40:24;95127.09;;;19.39;100.00
24280;BME280;12395;42.808;23.408;2023-06-01T07:42:49;95120.84;;;19.33;99.80
24280;BME280;12395;42.808;23.408;2023-06-01T07:45:15;95125.19;;;19.34;100.00
24280;BME280;12395;42.808;23.408;2023-06-01T07:47:40;95104.97;;;19.32;100.00
24280;BME280;12395;42.808;23.408;2023-06-01T07:50:06;95108.63;;;19.47;100.00
24280;BME280;12395;42.808;23.408;2023-06-01T07:52:32;95102.78;;;19.55;99.21
24280;BME280;12395;42.808;23.408;2023-06-01T07:54:58;95109.41;;;19.79;100.00
24280;BME280;12395;42.808;23.408;2023-06-01T07:57:23;95101.09;;;19.86;100.00
24280;BME280;12395;42.808;23.408;2023-06-01T07:59:49;95102.47;;;19.93;96.19
24280;BME280;12395;42.808;23.408;2023-06-01T08:02:15;95097.19;;;20.04;91.89
24280;BME280;12395;42.808;23.408;2023-06-01T08:04:40;95086.53;;;20.24;94.68
24280;BME280;12395;42.808;23.408;2023-06-01T08:07:06;95093.63;;;20.50;94.06
24280;BME280;12395;42.808;23.408;2023-06-01T08:09:33;95110.41;;;20.72;88.29
24280;BME280;12395;42.808;23.408;2023-06-01T08:11:58;95103.41;;;20.81;88.42
24280;BME280;12395;42.808;23.408;2023-06-01T08:14:24;95098.06;;;20.96;89.27
24280;BME280;12395;42.808;23.408;2023-06-01T08:16:49;95092.47;;;21.08;88.58
24280;BME280;12395;42.808;23.408;2023-06-01T08:19:16;95093.53;;;21.22;86.44
24280;BME280;12395;42.808;23.408;2023-06-01T08:21:42;95095.72;;;21.50;84.97
24280;BME280;12395;42.808;23.408;2023-06-01T08:24:08;95101.38;;;21.64;82.69
24280;BME280;12395;42.808;23.408;2023-06-01T08:29:00;95095.97;;;21.89;79.16
24280;BME280;12395;42.808;23.408;2023-06-01T08:31:25;95098.63;;;22.04;77.57
24280;BME280;12395;42.808;23.408;2023-06-01T08:33:52;95096.47;;;22.01;80.42
24280;BME280;12395;42.808;23.408;2023-06-01T08:36:18;95093.78;;;22.06;79.33
24280;BME280;12395;42.808;23.408;2023-06-01T08:38:44;95077.06;;;22.09;79.40
24280;BME280;12395;42.808;23.408;2023-06-01T08:43:53;95092.50;;;22.57;80.27
24280;BME280;12395;42.808;23.408;2023-06-01T08:46:21;95083.09;;;22.60;77.92
24280;BME280;12395;42.808;23.408;2023-06-01T08:48:48;95095.69;;;22.74;75.08
24280;BME280;12395;42.808;23.408;2023-06-01T08:51:15;95076.56;;;22.66;74.55
24280;BME280;12395;42.808;23.408;2023-06-01T08:53:41;95077.00;;;22.83;77.38
24280;BME280;12395;42.808;23.408;2023-06-01T08:56:09;95066.94;;;22.93;73.41
24280;BME280;12395;42.808;23.408;2023-06-01T08:58:36;95059.97;;;22.87;72.69
24280;BME280;12395;42.808;23.408;2023-06-01T09:01:02;95059.34;;;23.00;69.87
24280;BME280;12395;42.808;23.408;2023-06-01T09:03:42;95070.50;;;23.33;72.22
24280;BME280;12395;42.808;23.408;2023-06-01T09:06:09;95065.53;;;23.73;72.94
24280;BME280;12395;42.808;23.408;2023-06-01T09:08:34;95059.00;;;24.03;71.19
24280;BME280;12395;42.808;23.408;2023-06-01T09:11:00;95071.81;;;24.45;63.90
24280;BME280;12395;42.808;23.408;2023-06-01T09:13:38;95065.47;;;24.78;64.28
24280;BME280;12395;42.808;23.408;2023-06-01T09:16:04;95068.75;;;25.31;65.91
24280;BME280;12395;42.808;23.408;2023-06-01T09:18:31;95056.75;;;25.69;67.15
24280;BME280;12395;42.808;23.408;2023-06-01T09:21:15;95067.78;;;25.91;61.20
24280;BME280;12395;42.808;23.408;2023-06-01T09:23:40;95063.88;;;26.11;62.33
24280;BME280;12395;42.808;23.408;2023-06-01T09:26:12;95074.75;;;26.52;60.80
24280;BME280;12395;42.808;23.408;2023-06-01T09:31:37;95073.06;;;26.83;59.12
24280;BME280;12395;42.808;23.408;2023-06-01T09:34:03;95062.44;;;26.73;57.72
24280;BME280;12395;42.808;23.408;2023-06-01T09:36:28;95032.69;;;26.63;58.96
24280;BME280;12395;42.808;23.408;2023-06-01T09:39:07;95053.47;;;27.08;54.96
24280;BME280;12395;42.808;23.408;2023-06-01T09:44:11;95049.28;;;27.24;56.03
24280;BME280;12395;42.808;23.408;2023-06-01T09:46:50;95036.81;;;26.60;56.66
24280;BME280;12395;42.808;23.408;2023-06-01T09:49:20;95034.31;;;26.37;57.15
24280;BME280;12395;42.808;23.408;2023-06-01T09:51:46;95031.41;;;26.33;61.56
24280;BME280;12395;42.808;23.408;2023-06-01T09:54:26;95027.38;;;26.31;59.90
24280;BME280;12395;42.808;23.408;2023-06-01T09:56:53;95023.97;;;26.12;59.12
24280;BME280;12395;42.808;23.408;2023-06-01T09:59:20;95026.75;;;25.93;58.41
24280;BME280;12395;42.808;23.408;2023-06-01T10:01:51;95027.44;;;25.85;60.49
24280;BME280;12395;42.808;23.408;2023-06-01T10:04:25;95021.38;;;25.74;56.85
24280;BME280;12395;42.808;23.408;2023-06-01T10:06:53;95019.09;;;25.49;47.50
24280;BME280;12395;42.808;23.408;2023-06-01T10:09:20;95001.63;;;25.23;51.47
24280;BME280;12395;42.808;23.408;2023-06-01T10:11:50;95010.94;;;25.17;54.45
24280;BME280;12395;42.808;23.408;2023-06-01T10:14:19;95029.13;;;25.16;56.76
24280;BME280;12395;42.808;23.408;2023-06-01T10:16:45;95027.59;;;25.10;57.86
24280;BME280;12395;42.808;23.408;2023-06-01T10:19:11;95012.97;;;25.25;59.25
24280;BME280;12395;42.808;23.408;2023-06-01T10:21:37;95019.28;;;25.20;47.67
24280;BME280;12395;42.808;23.408;2023-06-01T10:24:05;95025.91;;;24.96;47.53
24280;BME280;12395;42.808;23.408;2023-06-01T10:26:38;95011.16;;;24.65;49.82
24280;BME280;12395;42.808;23.408;2023-06-01T10:29:05;95001.69;;;24.62;50.89
24280;BME280;12395;42.808;23.408;2023-06-01T10:31:42;95000.16;;;24.56;51.27
24280;BME280;12395;42.808;23.408;2023-06-01T10:34:09;94978.78;;;24.55;55.37
24280;BME280;12395;42.808;23.408;2023-06-01T10:39:33;94980.38;;;24.56;48.48
24280;BME280;12395;42.808;23.408;2023-06-01T10:44:45;94982.38;;;24.50;49.95
24280;BME280;12395;42.808;23.408;2023-06-01T10:54:49;94965.16;;;24.97;52.46
24280;BME280;12395;42.808;23.408;2023-06-01T10:57:22;94963.59;;;25.09;51.70
24280;BME280;12395;42.808;23.408;2023-06-01T11:03:03;94957.22;;;25.19;49.92
24280;BME280;12395;42.808;23.408;2023-06-01T11:05:50;94952.63;;;25.33;49.25
24280;BME280;12395;42.808;23.408;2023-06-01T11:13:17;94946.91;;;25.35;49.72
24280;BME280;12395;42.808;23.408;2023-06-01T11:18:55;94942.34;;;25.62;45.42
24280;BME280;12395;42.808;23.408;2023-06-01T11:21:34;94946.38;;;25.51;46.49
24280;BME280;12395;42.808;23.408;2023-06-01T11:24:15;94944.78;;;25.77;51.42
24280;BME280;12395;42.808;23.408;2023-06-01T11:26:46;94940.66;;;26.21;49.43
24280;BME280;12395;42.808;23.408;2023-06-01T11:29:24;94947.75;;;26.44;47.04
24280;BME280;12395;42.808;23.408;2023-06-01T11:31:53;94951.53;;;26.70;48.16
24280;BME280;12395;42.808;23.408;2023-06-01T11:34:24;94958.13;;;26.42;49.38
24280;BME280;12395;42.808;23.408;2023-06-01T11:36:54;94948.41;;;25.41;49.69
24280;BME280;12395;42.808;23.408;2023-06-01T11:39:22;94935.59;;;24.82;52.41
24280;BME280;12395;42.808;23.408;2023-06-01T11:42:03;94942.31;;;24.47;52.87
24280;BME280;12395;42.808;23.408;2023-06-01T11:44:33;94926.06;;;24.28;54.72
24280;BME280;12395;42.808;23.408;2023-06-01T11:46:58;94924.94;;;24.29;52.33
24280;BME280;12395;42.808;23.408;2023-06-01T11:49:24;94930.72;;;24.04;52.86
24280;BME280;12395;42.808;23.408;2023-06-01T11:51:51;94921.66;;;24.14;54.36
24280;BME280;12395;42.808;23.408;2023-06-01T11:54:21;94912.72;;;24.13;54.13
24280;BME280;12395;42.808;23.408;2023-06-01T11:56:47;94909.81;;;24.28;57.09
24280;BME280;12395;42.808;23.408;2023-06-01T11:59:13;94911.34;;;24.16;55.89
24280;BME280;12395;42.808;23.408;2023-06-01T12:01:43;94920.44;;;24.01;57.04
24280;BME280;12395;42.808;23.408;2023-06-01T12:04:17;94926.66;;;23.78;59.79
24280;BME280;12395;42.808;23.408;2023-06-01T12:06:43;94921.97;;;23.89;60.15
24280;BME280;12395;42.808;23.408;2023-06-01T12:09:11;94933.47;;;23.99;57.54
24280;BME280;12395;42.808;23.408;2023-06-01T12:11:37;94931.63;;;23.71;57.64
24280;BME280;12395;42.808;23.408;2023-06-01T12:14:03;94935.41;;;23.70;60.68
24280;BME280;12395;42.808;23.408;2023-06-01T12:19:19;94926.06;;;24.28;54.55
24280;BME280;12395;42.808;23.408;2023-06-01T12:21:49;94922.25;;;24.29;54.80
24280;BME280;12395;42.808;23.408;2023-06-01T12:24:16;94930.59;;;24.51;56.18
24280;BME280;12395;42.808;23.408;2023-06-01T12:26:42;94929.66;;;24.80;55.25
24280;BME280;12395;42.808;23.408;2023-06-01T12:29:08;94927.16;;;24.83;57.06
24280;BME280;12395;42.808;23.408;2023-06-01T12:31:33;94937.16;;;25.01;54.86
24280;BME280;12395;42.808;23.408;2023-06-01T12:33:58;94931.94;;;25.05;53.89
24280;BME280;12395;42.808;23.408;2023-06-01T12:36:34;94944.44;;;25.19;54.86
24280;BME280;12395;42.808;23.408;2023-06-01T12:39:01;94939.31;;;25.18;55.88
24280;BME280;12395;42.808;23.408;2023-06-01T12:41:28;94938.38;;;25.09;57.83
24280;BME280;12395;42.808;23.408;2023-06-01T12:43:55;94926.03;;;25.03;57.69
24280;BME280;12395;42.808;23.408;2023-06-01T12:46:25;94933.97;;;24.99;58.65
24280;BME280;12395;42.808;23.408;2023-06-01T12:48:53;94926.44;;;24.78;61.92
24280;BME280;12395;42.808;23.408;2023-06-01T12:51:18;94927.97;;;24.65;60.92
24280;BME280;12395;42.808;23.408;2023-06-01T12:53:44;94917.94;;;24.28;62.33
24280;BME280;12395;42.808;23.408;2023-06-01T12:56:10;94917.84;;;23.91;65.21
24280;BME280;12395;42.808;23.408;2023-06-01T12:58:36;94909.88;;;23.57;66.51
24280;BME280;12395;42.808;23.408;2023-06-01T13:01:02;94912.56;;;23.34;67.09
24280;BME280;12395;42.808;23.408;2023-06-01T13:03:30;94901.31;;;22.93;67.09
24280;BME280;12395;42.808;23.408;2023-06-01T13:05:57;94915.47;;;22.80;70.03
24280;BME280;12395;42.808;23.408;2023-06-01T13:08:23;94912.13;;;22.93;71.14
24280;BME280;12395;42.808;23.408;2023-06-01T13:10:49;94891.81;;;22.95;72.06
24280;BME280;12395;42.808;23.408;2023-06-01T13:13:15;94901.97;;;23.09;72.12
24280;BME280;12395;42.808;23.408;2023-06-01T13:15:42;94892.16;;;23.18;71.73
24280;BME280;12395;42.808;23.408;2023-06-01T13:18:07;94892.56;;;23.30;68.22
24280;BME280;12395;42.808;23.408;2023-06-01T13:20:33;94894.63;;;23.66;70.36
24280;BME280;12395;42.808;23.408;2023-06-01T13:22:59;94877.66;;;24.03;68.66
24280;BME280;12395;42.808;23.408;2023-06-01T13:25:24;94895.31;;;24.57;65.16
24280;BME280;12395;42.808;23.408;2023-06-01T13:27:50;94885.84;;;24.91;64.53
24280;BME280;12395;42.808;23.408;2023-06-01T13:30:16;94876.13;;;25.04;60.93
24280;BME280;12395;42.808;23.408;2023-06-01T13:32:42;94894.16;;;25.41;58.98
24280;BME280;12395;42.808;23.408;2023-06-01T13:35:08;94889.28;;;25.56;58.43
24280;BME280;12395;42.808;23.408;2023-06-01T13:37:33;94890.00;;;25.62;56.89
24280;BME280;12395;42.808;23.408;2023-06-01T13:40:01;94884.34;;;25.58;56.41